Portada
METAR-TAF:

METAR-TAF

Aeroports :

Sitiawan, Malàisia

latitud: 04-13N, longitud: 100-42E, altitud: 7 m

Observació

L'informe es va fer fa 56 minuts, a les 00:00 UTC
Vent 1 kt amb direcció variable
Temperatura 26°C
Humitat 100%
Pressió 1006 hPa
Visibilitat: 6000 m
Escasses núvols a una alçada de 500 ft
Cel ennuvolat a una alçada de 28000 ft

METAR: WMBA 220000Z VRB01KT 6000 FEW005 BKN280 26/26 Q1006

Hora: 08:56 (00:56 UTC)


TAF: manca

Observacions i pronòstics meteorològics de més de 4000 aeroports (METAR i TAF).

Les estacions disponibles són els punts grocs i vermells al mapa.

Posi el ratolí al punt desitjat per veure el nom de l'estació.

Feu clic per veure les observacions i els pronòstics meteorològics.

Per canviar el mapa: feu clic els botons verds amb una creu de color negre per apropar; al botó verd amb un guió per allunyar la imatge; o en les fletxes verdes per a mapes adjacents.


METAR-TAF: